Time;durP1;ratioP1;P1;durP2;ratioP2;P2;SDS_P1;SDS_P2;PMS_P1;PMS_P2;Temp;Humidity;BMP_temperature;BMP_pressure;BME280_temperature;BME280_humidity;BME280_pressure;Samples;Min_cycle;Max_cycle;Signal;HPM_P1;HPM_P2
2022/09/16 00:00:57;;;;;;;28.55;15.43;;;;;;;29.98;67.73;100693.22;5073342;27;70048;-38
2022/09/16 00:03:33;;;;;;;27.10;16.33;;;;;;;29.96;67.03;100689.88;5076934;28;67180;-38
2022/09/16 00:06:06;;;;;;;36.20;18.50;;;;;;;30.05;66.83;100699.38;5076230;27;70111;-39
2022/09/16 00:08:39;;;;;;;39.00;18.60;;;;;;;30.09;66.99;100706.03;5073769;27;66881;-39
2022/09/16 00:11:13;;;;;;;57.40;21.85;;;;;;;30.11;67.53;100706.63;5074565;28;71555;-39
2022/09/16 00:13:46;;;;;;;52.20;21.00;;;;;;;30.03;68.23;100685.25;5075094;28;66204;-40
2022/09/16 00:16:22;;;;;;;48.40;20.85;;;;;;;29.89;67.98;100662.03;5073576;28;70193;-39
2022/09/16 00:18:58;;;;;;;51.47;20.63;;;;;;;29.98;68.44;100674.28;5075436;28;65946;-40
2022/09/16 00:21:31;;;;;;;45.03;20.50;;;;;;;30.28;68.41;100724.00;5079138;28;70516;-39
2022/09/16 00:24:04;;;;;;;38.25;19.55;;;;;;;30.30;68.42;100728.38;5064957;28;65644;-41
2022/09/16 00:26:38;;;;;;;29.88;18.92;;;;;;;30.21;77.34;100742.13;5074829;27;70550;-38
2022/09/16 00:29:11;;;;;;;44.78;20.38;;;;;;;30.18;76.69;100726.34;5067970;28;66017;-37
2022/09/16 00:31:44;;;;;;;30.13;20.33;;;;;;;30.30;76.95;100752.72;5064252;28;70684;-41
2022/09/16 00:34:17;;;;;;;28.95;19.27;;;;;;;30.27;77.17;100756.69;5068589;28;66745;-42
2022/09/16 00:36:50;;;;;;;26.42;18.38;;;;;;;30.12;77.56;100737.22;5075863;27;70625;-39
2022/09/16 00:39:22;;;;;;;35.42;17.70;;;;;;;30.32;73.30;100761.47;5076407;28;66201;-39
2022/09/16 00:41:55;;;;;;;25.02;14.82;;;;;;;30.30;72.56;100771.66;5078496;28;70188;-39
2022/09/16 00:44:57;;;;;;;24.30;14.23;;;;;;;30.20;71.89;100775.66;5068388;28;65172;-40
2022/09/16 00:47:36;;;;;;;19.70;12.85;;;;;;;30.30;71.00;100779.78;5076653;28;70204;-38
2022/09/16 00:50:22;;;;;;;20.52;13.52;;;;;;;30.32;71.24;100777.69;5071916;28;66428;-38
2022/09/16 00:52:57;;;;;;;18.10;12.27;;;;;;;29.91;70.75;100711.34;5082136;28;69959;-38
2022/09/16 00:55:34;;;;;;;16.45;12.07;;;;;;;29.93;70.78;100717.38;5079938;27;65950;-39
2022/09/16 00:59:01;;;;;;;17.25;11.32;;;;;;;30.23;70.07;100777.97;5070512;28;70590;-38
2022/09/16 01:01:34;;;;;;;15.68;10.48;;;;;;;30.46;70.67;100803.59;5042682;27;66162;-38
2022/09/16 01:04:14;;;;;;;16.80;11.35;;;;;;;30.02;69.93;100729.56;5066907;28;70299;-39
2022/09/16 01:06:49;;;;;;;12.15;9.77;;;;;;;30.13;70.37;100739.69;5078325;28;67613;-38
2022/09/16 01:09:24;;;;;;;12.57;9.88;;;;;;;30.07;70.40;100727.03;5063290;27;70126;-38
2022/09/16 01:11:57;;;;;;;16.17;10.25;;;;;;;30.56;70.67;100809.34;5076736;28;66919;-39
2022/09/16 01:17:35;;;;;;;10.50;9.43;;;;;;;30.58;70.28;100818.09;5069671;27;66631;-39
2022/09/16 01:20:17;;;;;;;13.68;9.40;;;;;;;30.60;70.02;100821.41;5081876;28;70949;-38
2022/09/16 01:23:02;;;;;;;12.18;8.85;;;;;;;30.56;70.21;100828.28;5084225;28;67100;-39
2022/09/16 01:26:08;;;;;;;16.70;9.63;;;;;;;30.53;70.12;100830.63;5084473;27;70836;-39
2022/09/16 01:29:06;;;;;;;15.25;9.55;;;;;;;30.44;70.02;100821.94;5077240;28;66348;-38
2022/09/16 01:32:16;;;;;;;12.35;8.30;;;;;;;30.55;70.18;100828.53;5070030;28;70790;-38
2022/09/16 01:34:57;;;;;;;11.40;8.02;;;;;;;30.19;69.72;100746.94;5073588;28;67581;-39
2022/09/16 01:37:42;;;;;;;11.30;8.60;;;;;;;30.38;69.66;100782.22;5082033;27;70514;-38
2022/09/16 01:40:36;;;;;;;11.27;8.10;;;;;;;30.60;70.03;100826.81;5064798;27;66354;-38
2022/09/16 01:43:18;;;;;;;12.40;8.38;;;;;;;30.75;69.75;100829.19;5076103;28;70911;-38
2022/09/16 01:46:06;;;;;;;10.90;7.82;;;;;;;30.26;69.54;100742.34;5076542;28;66843;-38
2022/09/16 01:49:00;;;;;;;11.77;7.90;;;;;;;30.65;69.66;100807.22;5065476;28;70941;-38
2022/09/16 01:51:40;;;;;;;13.20;8.00;;;;;;;30.80;69.51;100812.31;5074852;27;67408;-38
2022/09/16 01:54:39;;;;;;;11.40;7.30;;;;;;;30.70;69.87;100810.91;5077585;28;70706;-37
2022/09/16 01:57:19;;;;;;;8.52;6.20;;;;;;;30.43;69.83;100741.81;5076438;28;66208;-39
2022/09/16 02:00:03;;;;;;;8.18;6.50;;;;;;;30.82;69.49;100799.41;5079720;27;70723;-38
2022/09/16 02:02:48;;;;;;;9.23;6.60;;;;;;;30.89;69.19;100800.16;5078375;27;66761;-38
2022/09/16 02:05:34;;;;;;;8.00;5.80;;;;;;;30.88;69.45;100812.03;5080937;28;71262;-38
2022/09/16 02:08:14;;;;;;;14.18;6.45;;;;;;;30.92;69.33;100797.00;5078327;28;66964;-38
2022/09/16 02:10:53;;;;;;;21.88;7.25;;;;;;;30.51;69.16;100714.47;5077853;28;70493;-40
2022/09/16 02:13:40;;;;;;;20.13;8.00;;;;;;;30.51;68.95;100719.88;5079330;28;66855;-37
2022/09/16 02:16:35;;;;;;;14.82;6.82;;;;;;;30.54;69.06;100735.66;5072215;28;70103;-39
2022/09/16 02:19:17;;;;;;;12.65;6.13;;;;;;;30.99;69.15;100784.22;5063150;28;66074;-39
2022/09/16 02:21:53;;;;;;;8.30;5.27;;;;;;;30.65;69.03;100726.00;5075909;28;70207;-38
2022/09/16 02:24:28;;;;;;;6.53;5.40;;;;;;;30.17;68.63;100638.13;5077326;28;66840;-38
2022/09/16 02:27:06;;;;;;;9.75;5.65;;;;;;;30.63;68.30;100712.66;5065457;28;70603;-38
2022/09/16 02:29:50;;;;;;;8.77;5.25;;;;;;;31.01;68.90;100765.88;5076756;28;65974;-38
2022/09/16 02:32:25;;;;;;;12.95;6.28;;;;;;;30.72;68.54;100719.44;5069827;28;71225;-39
2022/09/16 02:35:00;;;;;;;8.13;4.90;;;;;;;31.05;68.29;100763.53;5076466;28;66105;-38
2022/09/16 02:37:41;;;;;;;7.38;5.20;;;;;;;31.09;68.52;100768.31;5072038;28;70896;-38
2022/09/16 02:40:23;;;;;;;10.13;4.55;;;;;;;31.06;68.42;100767.91;5079634;28;65889;-38
2022/09/16 02:42:56;;;;;;;;;;;;;;;30.80;69.93;100777.13;5077572;27;70282;-38
2022/09/16 02:45:46;;;;;;;;;;;;;;;30.75;69.68;100771.50;5079448;28;67551;-39
2022/09/16 02:48:28;;;;;;;7.63;4.60;;;;;;;31.14;68.26;100773.84;5077507;28;70931;-37
2022/09/16 02:51:09;;;;;;;6.00;4.85;;;;;;;31.16;68.09;100771.75;5078652;28;67022;-40
2022/09/16 02:54:23;;;;;;;17.97;5.33;;;;;;;31.06;68.40;100774.13;5080633;27;70121;-38
2022/09/16 02:56:56;;;;;;;13.90;5.15;;;;;;;31.14;68.14;100757.59;5044070;27;66934;-39
2022/09/16 02:59:28;;;;;;;10.98;5.55;;;;;;;31.30;67.98;100777.84;5080511;28;70581;-39
2022/09/16 03:02:01;;;;;;;8.57;4.50;;;;;;;31.32;67.43;100783.06;5070977;28;66230;-38
2022/09/16 03:04:35;;;;;;;9.00;4.68;;;;;;;31.36;67.69;100781.56;5066692;27;69782;-38
2022/09/16 03:07:10;;;;;;;6.40;3.90;;;;;;;30.88;67.53;100701.00;5078612;28;66287;-38
2022/09/16 03:09:47;;;;;;;7.25;4.47;;;;;;;30.96;67.16;100700.72;5070991;28;70849;-38
2022/09/16 03:12:28;;;;;;;8.20;4.80;;;;;;;31.38;67.34;100784.91;5088573;27;66079;-38
2022/09/16 03:15:27;;;;;;;8.00;4.15;;;;;;;31.34;67.34;100778.22;5077684;27;71015;-38
2022/09/16 03:18:09;;;;;;;7.70;4.35;;;;;;;31.44;67.14;100773.13;5065375;28;67100;-37
2022/09/16 03:20:52;;;;;;;7.05;4.20;;;;;;;31.43;67.22;100755.22;5078204;28;70098;-37
2022/09/16 03:23:30;;;;;;;7.90;4.57;;;;;;;31.47;67.11;100756.41;5075682;28;66981;-39
2022/09/16 03:26:11;;;;;;;10.98;4.00;;;;;;;31.49;66.69;100757.03;5075614;28;70931;-37
2022/09/16 03:28:46;;;;;;;13.97;5.80;;;;;;;31.51;67.27;100757.63;5072151;28;66485;-38
2022/09/16 03:31:31;;;;;;;13.10;5.90;;;;;;;31.49;66.58;100748.91;5073063;28;70707;-38
2022/09/16 03:34:20;;;;;;;19.45;6.15;;;;;;;31.41;66.51;100724.81;5076776;28;67344;-38
2022/09/16 03:36:59;;;;;;;15.95;5.65;;;;;;;31.43;66.51;100716.47;5072648;28;70404;-40
2022/09/16 03:39:32;;;;;;;18.45;5.85;;;;;;;31.61;66.45;100748.94;5068642;28;67120;-38
2022/09/16 03:42:09;;;;;;;17.17;6.75;;;;;;;31.64;66.34;100731.41;5078678;28;69868;-38
2022/09/16 03:44:42;;;;;;;11.85;5.75;;;;;;;31.65;66.34;100725.75;5077295;27;66592;-39
2022/09/16 03:47:15;;;;;;;18.08;6.50;;;;;;;31.57;66.19;100707.91;5062052;28;70914;-38
2022/09/16 03:49:47;;;;;;;20.58;6.65;;;;;;;31.69;66.29;100720.69;5061290;28;67046;-38
2022/09/16 03:52:19;;;;;;;16.70;6.60;;;;;;;31.72;66.20;100722.94;5064867;28;70864;-39
2022/09/16 03:54:52;;;;;;;15.95;6.47;;;;;;;31.73;66.28;100717.31;5077677;28;66733;-40
2022/09/16 03:57:26;;;;;;;20.15;7.22;;;;;;;31.75;65.97;100703.50;5076413;28;71009;-39
2022/09/16 03:59:58;;;;;;;20.75;6.28;;;;;;;31.77;65.98;100712.22;5065910;28;66532;-37
2022/09/16 04:02:41;;;;;;;19.83;6.22;;;;;;;31.66;65.97;100689.44;5079809;28;71129;-37
2022/09/16 04:05:13;;;;;;;17.13;6.55;;;;;;;31.76;65.84;100702.41;5070664;27;66088;-38
2022/09/16 04:07:48;;;;;;;20.77;6.35;;;;;;;31.85;65.64;100711.91;5078411;28;71015;-38
2022/09/16 04:10:21;;;;;;;17.75;6.15;;;;;;;31.86;65.69;100700.00;5078446;27;66215;-38
2022/09/16 04:12:57;;;;;;;15.65;6.55;;;;;;;31.50;65.52;100631.25;5075736;28;70821;-38
2022/09/16 04:15:29;;;;;;;14.70;5.93;;;;;;;31.89;65.58;100691.38;5075578;27;65866;-38
2022/09/16 04:18:08;;;;;;;21.67;6.65;;;;;;;31.75;65.42;100657.38;5074310;27;70996;-38
2022/09/16 04:20:41;;;;;;;27.85;7.20;;;;;;;31.92;65.59;100687.41;5070628;28;66931;-39
2022/09/16 04:23:13;;;;;;;24.20;7.78;;;;;;;31.93;65.62;100673.63;5080335;28;70731;-39
2022/09/16 04:25:54;;;;;;;27.48;7.72;;;;;;;31.92;65.20;100688.25;5072106;28;66177;-38
2022/09/16 04:28:29;;;;;;;31.80;7.60;;;;;;;31.93;65.44;100667.34;5072416;28;70684;-38
2022/09/16 04:31:09;;;;;;;26.00;8.02;;;;;;;31.97;65.01;100674.81;5074494;27;66533;-38
2022/09/16 04:33:41;;;;;;;21.88;7.50;;;;;;;31.99;65.24;100669.97;5073013;28;70727;-38
2022/09/16 04:36:19;;;;;;;42.58;8.93;;;;;;;31.86;65.03;100639.50;5070895;28;66514;-38
2022/09/16 04:38:51;;;;;;;43.03;9.93;;;;;;;32.04;65.32;100653.84;5076073;28;71299;-37
2022/09/16 04:41:25;;;;;;;43.00;11.52;;;;;;;32.05;64.89;100666.34;5071075;27;66203;-39
2022/09/16 04:43:59;;;;;;;44.38;10.25;;;;;;;32.00;64.93;100633.66;5067214;28;70581;-39
2022/09/16 04:46:32;;;;;;;50.38;10.70;;;;;;;32.11;65.08;100642.03;5066473;28;67016;-38
2022/09/16 04:49:05;;;;;;;44.17;10.70;;;;;;;32.12;65.06;100633.66;5067738;28;70133;-38
2022/09/16 04:51:38;;;;;;;42.40;10.82;;;;;;;32.02;64.71;100600.88;5066801;27;66737;-38
2022/09/16 04:54:11;;;;;;;50.13;10.73;;;;;;;32.16;64.84;100620.47;5080005;28;70629;-38
2022/09/16 04:56:43;;;;;;;55.50;13.32;;;;;;;32.17;64.90;100619.38;5077988;28;67028;-38
2022/09/16 04:59:15;;;;;;;62.40;13.90;;;;;;;31.93;64.53;100569.69;5080449;28;70189;-40
2022/09/16 05:01:48;;;;;;;66.28;13.98;;;;;;;32.20;64.49;100606.16;5079230;28;66555;-39
2022/09/16 05:04:21;;;;;;;57.00;13.38;;;;;;;32.22;64.78;100611.38;5079061;27;70522;-39
2022/09/16 05:06:54;;;;;;;46.70;13.27;;;;;;;32.26;64.41;100612.53;5077207;27;66489;-38
2022/09/16 05:09:27;;;;;;;54.83;13.25;;;;;;;32.27;64.59;100603.34;5071470;28;70721;-38
2022/09/16 05:12:00;;;;;;;51.92;12.77;;;;;;;32.29;64.45;100601.22;5077684;28;67253;-38
2022/09/16 05:14:32;;;;;;;58.65;13.05;;;;;;;32.30;64.54;100592.03;5072360;28;70486;-38
2022/09/16 05:17:06;;;;;;;46.08;11.60;;;;;;;32.32;64.31;100589.91;5073751;28;66356;-39
2022/09/16 05:19:38;;;;;;;37.95;10.15;;;;;;;32.34;64.39;100589.66;5078832;28;70618;-39
2022/09/16 05:22:12;;;;;;;35.50;10.63;;;;;;;32.34;64.26;100579.59;5079559;28;66359;-39
2022/09/16 05:24:45;;;;;;;45.92;11.30;;;;;;;32.35;64.20;100573.13;5073017;27;70346;-41
2022/09/16 05:27:17;;;;;;;38.45;10.23;;;;;;;32.36;64.10;100572.06;5056874;28;66071;-40
2022/09/16 05:29:50;;;;;;;36.13;9.85;;;;;;;32.39;63.81;100558.00;5073361;28;70703;-39
2022/09/16 05:32:22;;;;;;;36.05;9.40;;;;;;;32.42;64.01;100554.81;5068082;28;67176;-40
2022/09/16 05:34:55;;;;;;;32.00;9.55;;;;;;;32.39;63.74;100549.88;5070928;28;70372;-37
2022/09/16 05:37:27;;;;;;;36.10;9.15;;;;;;;32.24;63.77;100517.81;5072707;28;67247;-40
2022/09/16 05:40:01;;;;;;;32.55;9.43;;;;;;;32.51;63.57;100546.34;5080623;28;70803;-40
2022/09/16 05:42:33;;;;;;;24.33;8.68;;;;;;;32.49;63.55;100530.31;5071798;28;67175;-40
2022/09/16 05:45:37;;;;;;;26.77;8.05;;;;;;;32.43;63.81;100525.78;5061143;28;70042;-39
2022/09/16 05:48:10;;;;;;;15.63;7.43;;;;;;;32.56;63.56;100525.53;5076280;28;66811;-38
2022/09/16 05:50:53;;;;;;;22.15;7.70;;;;;;;32.54;63.44;100516.84;5082065;27;70431;-38
2022/09/16 05:53:29;;;;;;;20.73;7.43;;;;;;;32.18;63.21;100450.06;5076487;28;66829;-38
2022/09/16 05:56:03;;;;;;;22.83;6.68;;;;;;;32.62;63.17;100523.75;5075442;28;70864;-38
2022/09/16 05:58:38;;;;;;;18.90;6.45;;;;;;;32.60;63.23;100512.34;5070010;28;65780;-38
2022/09/16 06:01:18;;;;;;;12.70;6.15;;;;;;;32.62;63.14;100540.88;5065676;28;70862;-38
2022/09/16 06:03:52;;;;;;;24.40;7.22;;;;;;;32.66;63.08;100520.31;5067733;28;67197;-37
2022/09/16 06:06:27;;;;;;;17.55;6.47;;;;;;;32.67;63.01;100515.72;5074112;28;70993;-38
2022/09/16 06:09:03;;;;;;;20.25;6.40;;;;;;;32.69;63.00;100524.44;5069134;28;66968;-39
2022/09/16 06:11:41;;;;;;;13.20;6.35;;;;;;;31.85;63.16;100378.28;5069957;27;70455;-39
2022/09/16 06:14:15;;;;;;;14.07;6.00;;;;;;;32.66;62.81;100487.75;5078021;28;67120;-38
2022/09/16 06:16:48;;;;;;;19.23;6.65;;;;;;;32.68;63.31;100479.34;5078052;28;70611;-38
2022/09/16 06:19:21;;;;;;;13.48;6.30;;;;;;;32.68;63.16;100468.47;5064397;28;67108;-38
2022/09/16 06:21:53;;;;;;;13.70;5.15;;;;;;;32.69;63.20;100462.00;5078682;28;70715;-38
2022/09/16 06:24:26;;;;;;;9.02;4.63;;;;;;;32.69;63.15;100459.28;5065130;28;67026;-38
2022/09/16 06:26:58;;;;;;;12.27;5.40;;;;;;;32.69;63.16;100451.13;5077246;28;70925;-39
2022/09/16 06:29:31;;;;;;;12.23;5.28;;;;;;;32.69;63.27;100454.66;5076764;28;66375;-38
2022/09/16 06:32:03;;;;;;;13.60;5.07;;;;;;;32.70;63.17;100447.34;5070276;27;71163;-38
2022/09/16 06:34:37;;;;;;;13.52;5.13;;;;;;;32.71;63.03;100451.72;5082550;28;66311;-38
2022/09/16 06:37:12;;;;;;;12.90;5.57;;;;;;;32.71;63.21;100441.66;5076456;28;70634;-38
2022/09/16 06:39:44;;;;;;;7.85;5.28;;;;;;;32.71;63.17;100446.28;5078314;28;66288;-38
2022/09/16 06:42:17;;;;;;;12.30;4.65;;;;;;;32.72;63.20;100437.06;5079672;28;70934;-40
2022/09/16 06:44:49;;;;;;;7.40;3.78;;;;;;;32.68;62.91;100436.72;5068348;27;67034;-38
2022/09/16 06:47:22;;;;;;;6.38;4.68;;;;;;;32.72;63.33;100426.19;5072473;28;70896;-40
2022/09/16 06:49:54;;;;;;;8.27;4.57;;;;;;;32.61;63.10;100389.06;5072865;28;66853;-41
2022/09/16 06:52:50;;;;;;;9.15;4.93;;;;;;;32.61;63.23;100402.63;5071317;27;70303;-41
2022/09/16 06:55:22;;;;;;;7.57;4.70;;;;;;;32.75;63.25;100425.69;5074099;28;66041;-38
2022/09/16 06:57:56;;;;;;;9.07;5.05;;;;;;;32.75;63.14;100398.53;5065003;28;69970;-38
2022/09/16 07:00:28;;;;;;;8.52;4.50;;;;;;;32.76;63.34;100405.59;5071891;28;67078;-39
2022/09/16 07:03:01;;;;;;;14.80;4.53;;;;;;;32.32;63.26;100329.34;5070924;28;71188;-41
2022/09/16 07:05:34;;;;;;;12.45;5.10;;;;;;;32.77;63.30;100412.72;5077279;28;67013;-39
2022/09/16 07:08:06;;;;;;;14.48;5.40;;;;;;;32.77;63.19;100415.44;5076176;28;70036;-38
2022/09/16 07:10:42;;;;;;;15.32;5.25;;;;;;;32.67;63.10;100390.78;5077833;28;67002;-41
2022/09/16 07:13:19;;;;;;;6.28;4.82;;;;;;;32.80;63.12;100393.19;5071703;28;70518;-38
2022/09/16 07:15:52;;;;;;;11.27;5.10;;;;;;;32.82;63.11;100377.50;5074341;28;66377;-38
2022/09/16 07:18:43;;;;;;;16.15;5.38;;;;;;;32.80;63.09;100368.75;5076153;28;70677;-38
2022/09/16 07:21:18;;;;;;;7.57;4.55;;;;;;;32.43;62.91;100306.72;5077080;28;66858;-37
2022/09/16 07:23:54;;;;;;;19.00;5.95;;;;;;;32.85;63.03;100370.75;5077104;28;70224;-38
2022/09/16 07:26:32;;;;;;;21.50;6.50;;;;;;;32.46;62.91;100302.75;5076163;28;67004;-39
2022/09/16 07:29:06;;;;;;;16.65;6.55;;;;;;;32.48;62.83;100301.44;5078007;28;70503;-38
2022/09/16 07:31:39;;;;;;;19.92;6.22;;;;;;;32.87;62.76;100353.09;5075051;28;66925;-38
2022/09/16 07:34:12;;;;;;;15.88;5.97;;;;;;;32.85;62.63;100349.03;5077821;28;70561;-38
2022/09/16 07:36:49;;;;;;;14.10;5.53;;;;;;;32.88;62.77;100343.91;5076153;28;67149;-39
2022/09/16 07:39:21;;;;;;;11.57;5.63;;;;;;;32.84;62.75;100348.16;5076914;27;70299;-39
2022/09/16 07:41:54;;;;;;;13.13;5.40;;;;;;;32.74;62.59;100329.00;5077102;28;66696;-39
2022/09/16 07:44:32;;;;;;;16.25;6.05;;;;;;;32.90;62.63;100359.94;5074587;28;70880;-40
2022/09/16 07:47:14;;;;;;;12.82;5.72;;;;;;;32.87;62.71;100355.81;5074058;28;67021;-38
2022/09/16 07:50:12;;;;;;;16.10;5.57;;;;;;;32.85;62.47;100366.13;5061743;28;71023;-38
2022/09/16 07:52:45;;;;;;;10.90;4.90;;;;;;;32.89;62.29;100372.72;5077387;28;67315;-38
2022/09/16 07:55:18;;;;;;;11.73;5.03;;;;;;;32.89;62.06;100361.03;5055055;28;69438;-38
2022/09/16 07:57:50;;;;;;;19.85;6.32;;;;;;;32.87;61.96;100363.97;5074935;28;66867;-38
2022/09/16 08:00:23;;;;;;;34.90;8.48;;;;;;;32.86;62.04;100364.22;5076216;27;69692;-39
2022/09/16 08:02:58;;;;;;;29.73;9.60;;;;;;;32.89;61.65;100361.84;5070456;27;67270;-40
2022/09/16 08:05:30;;;;;;;43.15;9.52;;;;;;;32.80;61.72;100352.47;5075353;27;70880;-38
2022/09/16 08:08:02;;;;;;;18.15;7.18;;;;;;;32.88;61.48;100365.63;5079155;27;65928;-38
2022/09/16 08:10:38;;;;;;;33.65;7.10;;;;;;;32.87;61.39;100353.09;5073999;28;70790;-40
2022/09/16 08:13:10;;;;;;;22.35;7.22;;;;;;;32.88;61.47;100352.06;5067661;28;67187;-38
2022/09/16 08:15:43;;;;;;;29.58;7.95;;;;;;;32.89;61.19;100348.25;5069270;27;69722;-38
2022/09/16 08:18:16;;;;;;;33.72;7.95;;;;;;;32.84;61.16;100337.31;5080580;28;66600;-39
2022/09/16 08:20:48;;;;;;;22.13;7.68;;;;;;;32.89;61.29;100340.09;5072137;28;70648;-39
2022/09/16 08:23:20;;;;;;;27.38;7.68;;;;;;;32.89;61.29;100350.97;5066493;28;67153;-39
2022/09/16 08:25:57;;;;;;;29.83;7.10;;;;;;;32.88;60.85;100367.53;5078494;28;70848;-38
2022/09/16 08:28:30;;;;;;;27.70;7.70;;;;;;;32.75;61.34;100349.66;5078487;27;66789;-38
2022/09/16 08:31:20;;;;;;;25.23;7.35;;;;;;;32.88;61.32;100387.38;5073998;28;70178;-38
2022/09/16 08:33:53;;;;;;;20.63;8.15;;;;;;;32.87;61.42;100396.56;5071827;27;66249;-38
2022/09/16 08:36:26;;;;;;;23.92;7.43;;;;;;;32.89;61.66;100389.00;5075893;28;70882;-39
2022/09/16 08:38:58;;;;;;;23.23;7.20;;;;;;;32.86;61.41;100378.63;5078804;28;65266;-38
2022/09/16 08:41:45;;;;;;;16.10;7.30;;;;;;;32.87;61.56;100380.28;5073418;28;70873;-40
2022/09/16 08:44:55;;;;;;;22.55;8.30;;;;;;;32.80;61.55;100379.63;5078445;27;66760;-39
2022/09/16 08:47:32;;;;;;;28.23;8.13;;;;;;;32.72;61.64;100388.16;5074277;28;70886;-37
2022/09/16 08:50:15;;;;;;;22.52;8.45;;;;;;;32.85;61.62;100390.59;5074741;27;67002;-39
2022/09/16 08:52:49;;;;;;;15.80;8.20;;;;;;;32.86;61.68;100392.22;5067489;28;70543;-38
2022/09/16 08:55:30;;;;;;;25.63;9.25;;;;;;;32.70;61.78;100374.81;5071495;28;67431;-39
2022/09/16 08:58:21;;;;;;;24.38;8.32;;;;;;;32.75;61.94;100393.13;5075531;28;70808;-39
2022/09/16 09:00:58;;;;;;;25.35;9.73;;;;;;;32.76;61.97;100356.72;5075979;27;66695;-38
2022/09/16 09:03:31;;;;;;;28.85;9.15;;;;;;;32.83;61.98;100395.44;5068856;28;71045;-39
2022/09/16 09:06:16;;;;;;;17.40;7.78;;;;;;;32.82;62.20;100392.94;5076774;28;65973;-39
2022/09/16 09:08:56;;;;;;;26.33;9.57;;;;;;;32.25;62.04;100317.78;5077216;28;70012;-40
2022/09/16 09:11:44;;;;;;;27.23;9.35;;;;;;;32.31;62.48;100338.53;5070013;28;66471;-39
2022/09/16 09:14:28;;;;;;;20.70;9.27;;;;;;;32.78;62.34;100414.34;5070888;27;70139;-38
2022/09/16 09:17:47;;;;;;;22.00;8.60;;;;;;;32.64;62.48;100413.00;5081848;27;66706;-39
2022/09/16 09:20:46;;;;;;;16.85;8.07;;;;;;;32.53;62.93;100411.16;5042469;28;70720;-39
2022/09/16 09:23:40;;;;;;;13.27;7.75;;;;;;;31.92;65.30;100380.88;5077955;27;67052;-39
2022/09/16 09:26:18;;;;;;;13.57;8.07;;;;;;;32.23;66.00;100452.88;5070430;28;71086;-39
2022/09/16 09:29:29;;;;;;;10.35;7.60;;;;;;;32.06;66.45;100455.53;5075452;28;66827;-40
2022/09/16 09:32:16;;;;;;;12.95;7.85;;;;;;;32.07;66.55;100461.78;5074329;28;69888;-39
2022/09/16 09:34:57;;;;;;;18.40;8.20;;;;;;;32.11;66.03;100458.34;5070242;28;66921;-40
2022/09/16 09:37:56;;;;;;;10.25;7.97;;;;;;;31.96;66.96;100456.13;5068934;28;70893;-39
2022/09/16 09:40:41;;;;;;;12.98;7.32;;;;;;;31.95;66.96;100442.81;5074321;28;66445;-40
2022/09/16 09:43:39;;;;;;;10.05;6.97;;;;;;;31.54;67.23;100377.63;5074449;28;70709;-40
2022/09/16 09:46:28;;;;;;;9.93;6.63;;;;;;;31.96;67.60;100450.72;5073113;28;67222;-42
2022/09/16 09:49:12;;;;;;;11.10;6.32;;;;;;;31.79;67.48;100444.34;5082306;27;69861;-41
2022/09/16 09:51:50;;;;;;;7.10;6.40;;;;;;;31.39;67.14;100380.78;5081655;28;66203;-41
2022/09/16 09:54:28;;;;;;;11.27;6.78;;;;;;;31.98;67.22;100475.72;5071409;28;71174;-41
2022/09/16 09:57:19;;;;;;;8.25;6.50;;;;;;;31.85;67.44;100481.34;5076198;28;66345;-39
2022/09/16 10:00:21;;;;;;;10.25;6.75;;;;;;;31.90;67.05;100477.91;5078306;28;69992;-42
2022/09/16 10:03:03;;;;;;;10.45;5.78;;;;;;;31.47;67.15;100414.88;5076123;28;66774;-39
2022/09/16 10:05:36;;;;;;;7.95;6.47;;;;;;;31.84;67.41;100485.13;5078419;28;70680;-39
2022/09/16 10:08:13;;;;;;;13.43;6.03;;;;;;;31.85;67.15;100486.78;5059768;28;66485;-40
2022/09/16 10:10:54;;;;;;;7.75;5.85;;;;;;;31.73;67.44;100492.22;5072687;27;70108;-39
2022/09/16 10:13:30;;;;;;;10.40;5.57;;;;;;;31.82;67.77;100536.91;5092321;27;68256;-41
2022/09/16 10:16:44;;;;;;;11.27;5.90;;;;;;;31.51;68.10;100513.66;5075974;28;69905;-42
2022/09/16 10:19:21;;;;;;;7.00;5.68;;;;;;;31.67;68.23;100511.28;5043757;28;66712;-41
2022/09/16 10:22:10;;;;;;;11.50;6.88;;;;;;;31.61;68.55;100540.16;5077865;27;70715;-40
2022/09/16 10:24:43;;;;;;;10.05;6.13;;;;;;;31.75;68.74;100570.59;5074917;27;66365;-39
2022/09/16 10:27:48;;;;;;;24.20;8.93;;;;;;;31.73;69.25;100592.56;5075072;28;71568;-41
2022/09/16 10:30:55;;;;;;;7.80;6.10;;;;;;;31.25;69.99;100503.19;5074554;28;67661;-41
2022/09/16 10:33:35;;;;;;;15.80;7.13;;;;;;;31.23;70.90;100483.59;5077463;28;70876;-40
2022/09/16 10:36:19;;;;;;;15.00;6.45;;;;;;;31.30;70.88;100484.34;5070336;27;66876;-42
2022/09/16 10:39:01;;;;;;;12.50;6.97;;;;;;;31.29;71.34;100471.88;5070722;28;70883;-40
2022/09/16 10:41:47;;;;;;;10.05;5.85;;;;;;;31.73;71.14;100529.31;5068591;28;67109;-40
2022/09/16 10:44:30;;;;;;;9.65;6.20;;;;;;;31.69;71.24;100544.44;5064565;28;70608;-39
2022/09/16 10:47:24;;;;;;;7.47;5.25;;;;;;;30.80;71.51;100409.66;5074416;28;65988;-40
2022/09/16 10:50:03;;;;;;;5.50;5.00;;;;;;;31.24;72.00;100471.72;5072772;28;70556;-40
2022/09/16 10:52:45;;;;;;;7.40;5.97;;;;;;;31.59;73.12;100537.72;5071016;28;67292;-41
2022/09/16 10:55:23;;;;;;;13.15;5.97;;;;;;;31.65;73.72;100540.50;5079875;27;71414;-41
2022/09/16 10:58:15;;;;;;;12.93;5.10;;;;;;;31.04;74.11;100464.72;5071280;28;66835;-41
2022/09/16 11:01:28;;;;;;;9.25;4.63;;;;;;;31.51;74.27;100540.75;5077174;28;70939;-40
2022/09/16 11:04:07;;;;;;;4.68;4.28;;;;;;;31.54;73.95;100548.41;5077043;28;66874;-41
2022/09/16 11:07:08;;;;;;;7.20;3.90;;;;;;;31.51;72.83;100527.19;5090768;27;70780;-41
2022/09/16 11:09:54;;;;;;;5.40;3.92;;;;;;;31.78;71.50;100545.72;5061576;27;66839;-41
2022/09/16 11:13:03;;;;;;;6.25;3.63;;;;;;;31.75;71.43;100551.63;5092599;27;70055;-39
2022/09/16 11:16:05;;;;;;;4.88;3.83;;;;;;;31.86;70.25;100545.38;5077248;28;66889;-41
2022/09/16 11:19:07;;;;;;;8.85;3.75;;;;;;;31.81;70.34;100556.09;5075598;28;71445;-40
2022/09/16 11:22:16;;;;;;;5.28;4.72;;;;;;;31.75;70.58;100548.91;5067819;28;66682;-41
2022/09/16 11:25:10;;;;;;;5.68;4.22;;;;;;;31.86;69.48;100547.28;5076476;28;69951;-39
2022/09/16 11:28:29;;;;;;;4.20;3.80;;;;;;;31.74;69.69;100539.97;5075297;28;66516;-39
2022/09/16 11:31:27;;;;;;;5.10;4.25;;;;;;;31.82;69.60;100547.75;5076270;28;70671;-39
2022/09/16 11:34:17;;;;;;;5.72;5.22;;;;;;;31.73;69.42;100543.75;5073896;28;66075;-39
2022/09/16 11:37:07;;;;;;;4.88;4.47;;;;;;;31.86;69.58;100545.38;5077444;27;72219;-41
2022/09/16 11:39:52;;;;;;;5.35;4.95;;;;;;;31.79;69.45;100547.41;5077527;28;67092;-40
2022/09/16 11:42:34;;;;;;;6.10;5.60;;;;;;;31.85;69.67;100546.47;5048258;28;70103;-39
2022/09/16 11:45:31;;;;;;;5.32;4.95;;;;;;;31.75;69.24;100543.50;5077182;28;66632;-38
2022/09/16 11:48:27;;;;;;;7.13;5.05;;;;;;;31.58;69.33;100533.31;5072829;28;70198;-41
2022/09/16 11:51:05;;;;;;;6.00;5.40;;;;;;;31.79;69.24;100550.94;5076406;28;67084;-39
2022/09/16 11:54:03;;;;;;;6.70;6.00;;;;;;;31.66;69.57;100558.47;5074336;28;70639;-40
2022/09/16 11:56:56;;;;;;;6.43;5.93;;;;;;;31.70;69.68;100560.44;5041435;28;66444;-40
2022/09/16 11:59:41;;;;;;;7.20;6.57;;;;;;;31.28;69.23;100475.63;5067229;27;69851;-37
2022/09/16 12:02:19;;;;;;;7.72;7.03;;;;;;;31.35;69.16;100488.00;5076963;27;66765;-39
2022/09/16 12:05:02;;;;;;;7.85;7.25;;;;;;;31.72;69.21;100557.53;5062962;28;70983;-39
2022/09/16 12:07:56;;;;;;;11.32;8.30;;;;;;;31.64;69.47;100566.00;5075695;28;66857;-40
2022/09/16 12:10:46;;;;;;;9.00;8.20;;;;;;;31.69;69.10;100558.00;5074279;28;71370;-43
2022/09/16 12:13:24;;;;;;;10.10;9.40;;;;;;;31.70;69.32;100570.47;5070010;28;66615;-42
2022/09/16 12:16:26;;;;;;;12.52;11.45;;;;;;;31.67;69.41;100560.09;5078119;28;70238;-39
2022/09/16 12:19:11;;;;;;;12.45;11.25;;;;;;;31.65;69.50;100575.78;5048152;27;66091;-38
2022/09/16 12:21:55;;;;;;;12.32;11.07;;;;;;;31.58;69.72;100557.72;5072808;28;70042;-38
2022/09/16 12:25:01;;;;;;;15.33;10.37;;;;;;;30.96;69.93;100484.03;5073470;28;66860;-38